sensor_id;sensor_type;location;lat;lon;timestamp;P1;durP1;ratioP1;P2;durP2;ratioP2
56680;SDS011;42558;52.388;13.390;2023-05-15T00:01:49;19.19;;;15.58;;
56680;SDS011;42558;52.388;13.390;2023-05-15T00:04:18;17.86;;;14.82;;
56680;SDS011;42558;52.388;13.390;2023-05-15T00:06:46;19.19;;;15.39;;
56680;SDS011;42558;52.388;13.390;2023-05-15T00:09:15;18.62;;;15.01;;
56680;SDS011;42558;52.388;13.390;2023-05-15T00:11:43;21.28;;;15.20;;
56680;SDS011;42558;52.388;13.390;2023-05-15T00:14:12;20.71;;;15.96;;
56680;SDS011;42558;52.388;13.390;2023-05-15T00:16:40;20.14;;;15.77;;
56680;SDS011;42558;52.388;13.390;2023-05-15T00:19:08;22.23;;;16.53;;
56680;SDS011;42558;52.388;13.390;2023-05-15T00:21:37;18.24;;;15.58;;
56680;SDS011;42558;52.388;13.390;2023-05-15T00:24:05;19.19;;;16.34;;
56680;SDS011;42558;52.388;13.390;2023-05-15T00:26:34;21.66;;;16.91;;
56680;SDS011;42558;52.388;13.390;2023-05-15T00:29:02;20.71;;;17.48;;
56680;SDS011;42558;52.388;13.390;2023-05-15T00:31:31;18.81;;;16.72;;
56680;SDS011;42558;52.388;13.390;2023-05-15T00:33:59;22.99;;;17.29;;
56680;SDS011;42558;52.388;13.390;2023-05-15T00:36:27;22.99;;;18.05;;
56680;SDS011;42558;52.388;13.390;2023-05-15T00:38:56;20.90;;;17.29;;
56680;SDS011;42558;52.388;13.390;2023-05-15T00:41:25;20.71;;;17.67;;
56680;SDS011;42558;52.388;13.390;2023-05-15T00:43:56;20.52;;;15.96;;
56680;SDS011;42558;52.388;13.390;2023-05-15T00:46:26;20.71;;;15.77;;
56680;SDS011;42558;52.388;13.390;2023-05-15T00:48:59;22.80;;;16.72;;
56680;SDS011;42558;52.388;13.390;2023-05-15T00:51:31;21.09;;;15.39;;
56680;SDS011;42558;52.388;13.390;2023-05-15T00:54:02;21.47;;;15.58;;
56680;SDS011;42558;52.388;13.390;2023-05-15T00:56:33;19.76;;;16.15;;
56680;SDS011;42558;52.388;13.390;2023-05-15T00:59:04;20.33;;;15.96;;
56680;SDS011;42558;52.388;13.390;2023-05-15T01:01:36;22.42;;;16.91;;
56680;SDS011;42558;52.388;13.390;2023-05-15T01:04:06;21.66;;;17.29;;
56680;SDS011;42558;52.388;13.390;2023-05-15T01:06:36;18.24;;;16.15;;
56680;SDS011;42558;52.388;13.390;2023-05-15T01:09:06;21.47;;;16.91;;
56680;SDS011;42558;52.388;13.390;2023-05-15T01:11:38;18.81;;;15.77;;
56680;SDS011;42558;52.388;13.390;2023-05-15T01:14:10;20.33;;;16.91;;
56680;SDS011;42558;52.388;13.390;2023-05-15T01:16:40;21.09;;;17.29;;
56680;SDS011;42558;52.388;13.390;2023-05-15T01:19:10;20.90;;;16.15;;
56680;SDS011;42558;52.388;13.390;2023-05-15T01:21:52;20.52;;;17.29;;
56680;SDS011;42558;52.388;13.390;2023-05-15T01:28:15;19.19;;;16.53;;
56680;SDS011;42558;52.388;13.390;2023-05-15T01:30:51;22.42;;;16.91;;
56680;SDS011;42558;52.388;13.390;2023-05-15T01:36:18;21.28;;;17.10;;
56680;SDS011;42558;52.388;13.390;2023-05-15T01:38:55;20.33;;;17.86;;
56680;SDS011;42558;52.388;13.390;2023-05-15T01:41:45;23.18;;;18.62;;
56680;SDS011;42558;52.388;13.390;2023-05-15T01:44:50;21.85;;;17.10;;
56680;SDS011;42558;52.388;13.390;2023-05-15T01:47:33;21.47;;;18.62;;
56680;SDS011;42558;52.388;13.390;2023-05-15T01:50:10;21.09;;;17.86;;
56680;SDS011;42558;52.388;13.390;2023-05-15T01:52:57;24.13;;;18.81;;
56680;SDS011;42558;52.388;13.390;2023-05-15T01:55:29;19.95;;;16.91;;
56680;SDS011;42558;52.388;13.390;2023-05-15T01:58:00;22.23;;;19.00;;
56680;SDS011;42558;52.388;13.390;2023-05-15T02:00:32;23.75;;;18.43;;
56680;SDS011;42558;52.388;13.390;2023-05-15T02:02:59;26.22;;;18.81;;
56680;SDS011;42558;52.388;13.390;2023-05-15T02:05:28;20.71;;;17.29;;
56680;SDS011;42558;52.388;13.390;2023-05-15T02:08:01;22.61;;;18.62;;
56680;SDS011;42558;52.388;13.390;2023-05-15T02:10:34;22.23;;;18.43;;
56680;SDS011;42558;52.388;13.390;2023-05-15T02:13:07;24.51;;;18.05;;
56680;SDS011;42558;52.388;13.390;2023-05-15T02:15:38;23.18;;;18.62;;
56680;SDS011;42558;52.388;13.390;2023-05-15T02:18:08;21.09;;;18.62;;
56680;SDS011;42558;52.388;13.390;2023-05-15T02:20:38;21.85;;;19.19;;
56680;SDS011;42558;52.388;13.390;2023-05-15T02:23:07;21.28;;;18.24;;
56680;SDS011;42558;52.388;13.390;2023-05-15T02:25:47;24.70;;;19.57;;
56680;SDS011;42558;52.388;13.390;2023-05-15T02:37:45;23.94;;;20.14;;
56680;SDS011;42558;52.388;13.390;2023-05-15T02:40:19;22.99;;;18.81;;
56680;SDS011;42558;52.388;13.390;2023-05-15T02:42:54;24.32;;;19.19;;
56680;SDS011;42558;52.388;13.390;2023-05-15T02:45:25;28.50;;;20.90;;
56680;SDS011;42558;52.388;13.390;2023-05-15T02:47:57;27.36;;;19.19;;
56680;SDS011;42558;52.388;13.390;2023-05-15T02:50:28;24.32;;;19.57;;
56680;SDS011;42558;52.388;13.390;2023-05-15T02:53:06;23.18;;;19.00;;
56680;SDS011;42558;52.388;13.390;2023-05-15T02:55:38;22.99;;;19.76;;
56680;SDS011;42558;52.388;13.390;2023-05-15T02:58:08;25.27;;;18.43;;
56680;SDS011;42558;52.388;13.390;2023-05-15T03:00:38;26.79;;;19.38;;
56680;SDS011;42558;52.388;13.390;2023-05-15T03:03:08;24.51;;;21.47;;
56680;SDS011;42558;52.388;13.390;2023-05-15T03:05:38;25.46;;;19.76;;
56680;SDS011;42558;52.388;13.390;2023-05-15T03:08:08;25.46;;;20.52;;
56680;SDS011;42558;52.388;13.390;2023-05-15T03:10:38;24.89;;;17.48;;
56680;SDS011;42558;52.388;13.390;2023-05-15T03:13:09;25.08;;;18.43;;
56680;SDS011;42558;52.388;13.390;2023-05-15T03:15:39;26.41;;;19.57;;
56680;SDS011;42558;52.388;13.390;2023-05-15T03:18:09;26.03;;;20.33;;
56680;SDS011;42558;52.388;13.390;2023-05-15T03:20:39;25.65;;;21.66;;
56680;SDS011;42558;52.388;13.390;2023-05-15T03:23:09;26.79;;;21.47;;
56680;SDS011;42558;52.388;13.390;2023-05-15T03:25:39;25.46;;;21.85;;
56680;SDS011;42558;52.388;13.390;2023-05-15T03:28:09;28.69;;;20.90;;
56680;SDS011;42558;52.388;13.390;2023-05-15T03:30:43;29.64;;;22.42;;
56680;SDS011;42558;52.388;13.390;2023-05-15T03:33:13;24.32;;;20.90;;
56680;SDS011;42558;52.388;13.390;2023-05-15T03:35:43;23.37;;;19.00;;
56680;SDS011;42558;52.388;13.390;2023-05-15T03:38:13;22.80;;;19.00;;
56680;SDS011;42558;52.388;13.390;2023-05-15T03:40:44;24.13;;;19.95;;
56680;SDS011;42558;52.388;13.390;2023-05-15T03:43:14;24.70;;;19.57;;
56680;SDS011;42558;52.388;13.390;2023-05-15T03:45:44;25.27;;;18.81;;
56680;SDS011;42558;52.388;13.390;2023-05-15T03:48:14;27.55;;;19.38;;
56680;SDS011;42558;52.388;13.390;2023-05-15T03:50:45;22.04;;;16.91;;
56680;SDS011;42558;52.388;13.390;2023-05-15T03:53:15;24.32;;;17.10;;
56680;SDS011;42558;52.388;13.390;2023-05-15T03:55:45;23.37;;;19.00;;
56680;SDS011;42558;52.388;13.390;2023-05-15T03:58:15;26.60;;;18.43;;
56680;SDS011;42558;52.388;13.390;2023-05-15T04:00:45;27.36;;;19.38;;
56680;SDS011;42558;52.388;13.390;2023-05-15T04:03:13;24.89;;;21.85;;
56680;SDS011;42558;52.388;13.390;2023-05-15T04:05:42;25.27;;;20.52;;
56680;SDS011;42558;52.388;13.390;2023-05-15T04:08:10;25.65;;;19.95;;
56680;SDS011;42558;52.388;13.390;2023-05-15T04:10:39;21.85;;;18.62;;
56680;SDS011;42558;52.388;13.390;2023-05-15T04:13:07;26.98;;;20.14;;
56680;SDS011;42558;52.388;13.390;2023-05-15T04:15:36;26.98;;;19.19;;
56680;SDS011;42558;52.388;13.390;2023-05-15T04:18:04;25.84;;;19.19;;
56680;SDS011;42558;52.388;13.390;2023-05-15T04:20:33;23.75;;;21.28;;
56680;SDS011;42558;52.388;13.390;2023-05-15T04:23:02;27.55;;;20.90;;
56680;SDS011;42558;52.388;13.390;2023-05-15T04:25:31;25.65;;;22.80;;
56680;SDS011;42558;52.388;13.390;2023-05-15T04:27:59;30.59;;;23.75;;
56680;SDS011;42558;52.388;13.390;2023-05-15T04:30:28;29.64;;;21.28;;
56680;SDS011;42558;52.388;13.390;2023-05-15T04:32:56;25.65;;;20.33;;
56680;SDS011;42558;52.388;13.390;2023-05-15T04:35:25;34.01;;;23.56;;
56680;SDS011;42558;52.388;13.390;2023-05-15T04:37:54;24.32;;;21.28;;
56680;SDS011;42558;52.388;13.390;2023-05-15T04:40:22;28.69;;;22.61;;
56680;SDS011;42558;52.388;13.390;2023-05-15T04:42:51;27.74;;;22.99;;
56680;SDS011;42558;52.388;13.390;2023-05-15T04:45:19;29.26;;;24.89;;
56680;SDS011;42558;52.388;13.390;2023-05-15T04:47:48;30.40;;;22.61;;
56680;SDS011;42558;52.388;13.390;2023-05-15T04:50:16;26.41;;;21.28;;
56680;SDS011;42558;52.388;13.390;2023-05-15T04:52:45;26.22;;;20.71;;
56680;SDS011;42558;52.388;13.390;2023-05-15T04:55:13;31.16;;;23.75;;
56680;SDS011;42558;52.388;13.390;2023-05-15T04:57:42;26.22;;;22.04;;
56680;SDS011;42558;52.388;13.390;2023-05-15T05:00:11;26.98;;;23.56;;
56680;SDS011;42558;52.388;13.390;2023-05-15T05:02:42;28.12;;;24.70;;
56680;SDS011;42558;52.388;13.390;2023-05-15T05:05:10;27.36;;;24.13;;
56680;SDS011;42558;52.388;13.390;2023-05-15T05:07:43;28.31;;;24.32;;
56680;SDS011;42558;52.388;13.390;2023-05-15T05:10:14;29.83;;;24.70;;
56680;SDS011;42558;52.388;13.390;2023-05-15T05:12:44;32.49;;;25.65;;
56680;SDS011;42558;52.388;13.390;2023-05-15T05:15:14;26.98;;;23.94;;
56680;SDS011;42558;52.388;13.390;2023-05-15T05:17:45;34.58;;;27.17;;
56680;SDS011;42558;52.388;13.390;2023-05-15T05:20:15;30.97;;;26.60;;
56680;SDS011;42558;52.388;13.390;2023-05-15T05:22:45;41.61;;;29.45;;
56680;SDS011;42558;52.388;13.390;2023-05-15T05:25:13;38.38;;;29.64;;
56680;SDS011;42558;52.388;13.390;2023-05-15T05:27:42;32.68;;;27.93;;
56680;SDS011;42558;52.388;13.390;2023-05-15T05:30:10;32.30;;;28.12;;
56680;SDS011;42558;52.388;13.390;2023-05-15T05:32:38;38.95;;;30.02;;
56680;SDS011;42558;52.388;13.390;2023-05-15T05:35:07;34.58;;;29.07;;
56680;SDS011;42558;52.388;13.390;2023-05-15T05:37:36;36.10;;;29.83;;
56680;SDS011;42558;52.388;13.390;2023-05-15T05:40:08;44.65;;;32.68;;
56680;SDS011;42558;52.388;13.390;2023-05-15T05:42:36;41.80;;;30.97;;
56680;SDS011;42558;52.388;13.390;2023-05-15T05:45:05;44.84;;;31.35;;
56680;SDS011;42558;52.388;13.390;2023-05-15T05:47:33;35.53;;;30.78;;
56680;SDS011;42558;52.388;13.390;2023-05-15T05:50:02;35.91;;;26.79;;
56680;SDS011;42558;52.388;13.390;2023-05-15T05:52:30;39.33;;;28.88;;
56680;SDS011;42558;52.388;13.390;2023-05-15T05:54:58;33.82;;;30.02;;
56680;SDS011;42558;52.388;13.390;2023-05-15T05:57:27;38.76;;;29.64;;
56680;SDS011;42558;52.388;13.390;2023-05-15T05:59:56;43.32;;;33.06;;
56680;SDS011;42558;52.388;13.390;2023-05-15T06:02:24;35.72;;;29.26;;
56680;SDS011;42558;52.388;13.390;2023-05-15T06:04:53;36.67;;;29.64;;
56680;SDS011;42558;52.388;13.390;2023-05-15T06:07:21;52.25;;;29.64;;
56680;SDS011;42558;52.388;13.390;2023-05-15T06:09:50;41.23;;;28.69;;
56680;SDS011;42558;52.388;13.390;2023-05-15T06:12:18;36.86;;;29.83;;
56680;SDS011;42558;52.388;13.390;2023-05-15T06:14:51;38.76;;;30.02;;
56680;SDS011;42558;52.388;13.390;2023-05-15T06:17:21;33.25;;;28.50;;
56680;SDS011;42558;52.388;13.390;2023-05-15T06:19:51;34.58;;;27.36;;
56680;SDS011;42558;52.388;13.390;2023-05-15T06:22:22;36.86;;;30.02;;
56680;SDS011;42558;52.388;13.390;2023-05-15T06:24:51;34.58;;;28.12;;
56680;SDS011;42558;52.388;13.390;2023-05-15T06:27:23;35.15;;;28.88;;
56680;SDS011;42558;52.388;13.390;2023-05-15T06:29:55;35.53;;;28.31;;
56680;SDS011;42558;52.388;13.390;2023-05-15T06:32:23;34.58;;;28.50;;
56680;SDS011;42558;52.388;13.390;2023-05-15T06:34:51;37.43;;;28.50;;
56680;SDS011;42558;52.388;13.390;2023-05-15T06:37:20;44.27;;;29.45;;
56680;SDS011;42558;52.388;13.390;2023-05-15T06:39:48;37.81;;;29.64;;
56680;SDS011;42558;52.388;13.390;2023-05-15T06:42:17;36.10;;;28.31;;
56680;SDS011;42558;52.388;13.390;2023-05-15T06:44:45;41.04;;;30.59;;
56680;SDS011;42558;52.388;13.390;2023-05-15T06:47:14;39.52;;;29.83;;
56680;SDS011;42558;52.388;13.390;2023-05-15T06:49:42;35.34;;;29.45;;
56680;SDS011;42558;52.388;13.390;2023-05-15T06:52:10;38.38;;;28.69;;
56680;SDS011;42558;52.388;13.390;2023-05-15T06:54:39;36.67;;;29.83;;
56680;SDS011;42558;52.388;13.390;2023-05-15T06:57:08;36.29;;;28.50;;
56680;SDS011;42558;52.388;13.390;2023-05-15T06:59:36;38.76;;;27.36;;
56680;SDS011;42558;52.388;13.390;2023-05-15T07:02:04;35.53;;;28.88;;
56680;SDS011;42558;52.388;13.390;2023-05-15T07:04:33;34.58;;;27.36;;
56680;SDS011;42558;52.388;13.390;2023-05-15T07:07:01;39.33;;;29.26;;
56680;SDS011;42558;52.388;13.390;2023-05-15T07:09:29;34.01;;;27.17;;
56680;SDS011;42558;52.388;13.390;2023-05-15T07:11:58;36.86;;;26.41;;
56680;SDS011;42558;52.388;13.390;2023-05-15T07:14:26;35.34;;;26.60;;
56680;SDS011;42558;52.388;13.390;2023-05-15T07:16:55;36.86;;;24.89;;
56680;SDS011;42558;52.388;13.390;2023-05-15T07:19:23;35.91;;;26.60;;
56680;SDS011;42558;52.388;13.390;2023-05-15T07:21:52;32.87;;;25.84;;
56680;SDS011;42558;52.388;13.390;2023-05-15T07:24:20;36.86;;;24.89;;
56680;SDS011;42558;52.388;13.390;2023-05-15T07:26:48;33.25;;;24.13;;
56680;SDS011;42558;52.388;13.390;2023-05-15T07:29:27;29.07;;;23.75;;
56680;SDS011;42558;52.388;13.390;2023-05-15T07:31:57;25.08;;;22.23;;
56680;SDS011;42558;52.388;13.390;2023-05-15T07:34:27;31.54;;;22.23;;
56680;SDS011;42558;52.388;13.390;2023-05-15T07:36:57;30.40;;;20.14;;
56680;SDS011;42558;52.388;13.390;2023-05-15T07:39:27;27.17;;;21.09;;
56680;SDS011;42558;52.388;13.390;2023-05-15T07:41:57;25.27;;;19.76;;
56680;SDS011;42558;52.388;13.390;2023-05-15T07:44:27;25.65;;;20.33;;
56680;SDS011;42558;52.388;13.390;2023-05-15T07:46:57;22.61;;;18.62;;
56680;SDS011;42558;52.388;13.390;2023-05-15T07:49:28;31.73;;;20.71;;
56680;SDS011;42558;52.388;13.390;2023-05-15T07:51:58;27.36;;;20.33;;
56680;SDS011;42558;52.388;13.390;2023-05-15T07:54:28;30.21;;;20.52;;
56680;SDS011;42558;52.388;13.390;2023-05-15T07:57:00;24.70;;;21.47;;
56680;SDS011;42558;52.388;13.390;2023-05-15T07:59:30;28.69;;;20.52;;
56680;SDS011;42558;52.388;13.390;2023-05-15T08:02:01;24.51;;;19.19;;
56680;SDS011;42558;52.388;13.390;2023-05-15T08:04:31;25.84;;;17.67;;
56680;SDS011;42558;52.388;13.390;2023-05-15T08:07:02;22.42;;;18.24;;
56680;SDS011;42558;52.388;13.390;2023-05-15T08:09:32;24.70;;;18.43;;
56680;SDS011;42558;52.388;13.390;2023-05-15T08:12:17;21.28;;;17.48;;
56680;SDS011;42558;52.388;13.390;2023-05-15T08:14:52;22.80;;;16.53;;
56680;SDS011;42558;52.388;13.390;2023-05-15T08:17:23;21.85;;;15.77;;
56680;SDS011;42558;52.388;13.390;2023-05-15T08:19:54;20.33;;;15.77;;
56680;SDS011;42558;52.388;13.390;2023-05-15T08:22:24;21.28;;;14.82;;
56680;SDS011;42558;52.388;13.390;2023-05-15T08:24:54;20.90;;;14.82;;
56680;SDS011;42558;52.388;13.390;2023-05-15T08:27:25;24.32;;;14.44;;
56680;SDS011;42558;52.388;13.390;2023-05-15T08:29:55;23.56;;;14.25;;
56680;SDS011;42558;52.388;13.390;2023-05-15T08:32:25;25.46;;;14.63;;
56680;SDS011;42558;52.388;13.390;2023-05-15T08:34:56;21.85;;;13.49;;
56680;SDS011;42558;52.388;13.390;2023-05-15T08:37:26;19.00;;;14.25;;
56680;SDS011;42558;52.388;13.390;2023-05-15T08:39:57;17.29;;;13.30;;
56680;SDS011;42558;52.388;13.390;2023-05-15T08:45:17;18.62;;;12.54;;
56680;SDS011;42558;52.388;13.390;2023-05-15T08:47:48;20.14;;;12.35;;
56680;SDS011;42558;52.388;13.390;2023-05-15T08:50:16;16.53;;;11.97;;
56680;SDS011;42558;52.388;13.390;2023-05-15T08:52:45;17.86;;;10.83;;
56680;SDS011;42558;52.388;13.390;2023-05-15T08:55:14;15.39;;;10.64;;
56680;SDS011;42558;52.388;13.390;2023-05-15T08:57:42;21.47;;;11.02;;
56680;SDS011;42558;52.388;13.390;2023-05-15T09:00:13;14.44;;;10.45;;
56680;SDS011;42558;52.388;13.390;2023-05-15T09:02:42;14.06;;;10.07;;
56680;SDS011;42558;52.388;13.390;2023-05-15T09:05:11;15.20;;;8.93;;
56680;SDS011;42558;52.388;13.390;2023-05-15T09:07:39;13.68;;;10.07;;
56680;SDS011;42558;52.388;13.390;2023-05-15T09:10:13;14.25;;;9.88;;
56680;SDS011;42558;52.388;13.390;2023-05-15T09:12:44;17.10;;;10.26;;
56680;SDS011;42558;52.388;13.390;2023-05-15T09:15:16;18.62;;;10.64;;
56680;SDS011;42558;52.388;13.390;2023-05-15T09:17:51;19.76;;;9.88;;
56680;SDS011;42558;52.388;13.390;2023-05-15T09:20:28;22.99;;;10.26;;
56680;SDS011;42558;52.388;13.390;2023-05-15T09:23:00;16.34;;;9.88;;
56680;SDS011;42558;52.388;13.390;2023-05-15T09:25:40;19.19;;;9.69;;
56680;SDS011;42558;52.388;13.390;2023-05-15T09:28:30;22.04;;;9.88;;
56680;SDS011;42558;52.388;13.390;2023-05-15T09:31:03;18.62;;;10.45;;
56680;SDS011;42558;52.388;13.390;2023-05-15T09:33:35;16.72;;;9.88;;
56680;SDS011;42558;52.388;13.390;2023-05-15T09:36:06;18.05;;;10.07;;
56680;SDS011;42558;52.388;13.390;2023-05-15T09:38:41;13.30;;;9.31;;
56680;SDS011;42558;52.388;13.390;2023-05-15T09:41:10;16.34;;;9.88;;
56680;SDS011;42558;52.388;13.390;2023-05-15T09:43:40;13.30;;;10.07;;
56680;SDS011;42558;52.388;13.390;2023-05-15T09:46:10;15.20;;;11.02;;
56680;SDS011;42558;52.388;13.390;2023-05-15T09:48:43;15.39;;;11.02;;
56680;SDS011;42558;52.388;13.390;2023-05-15T09:51:18;19.00;;;10.45;;
56680;SDS011;42558;52.388;13.390;2023-05-15T09:53:52;19.00;;;11.21;;
56680;SDS011;42558;52.388;13.390;2023-05-15T09:56:23;15.77;;;11.21;;
56680;SDS011;42558;52.388;13.390;2023-05-15T09:58:53;15.96;;;10.64;;
56680;SDS011;42558;52.388;13.390;2023-05-15T10:01:25;17.29;;;11.21;;
56680;SDS011;42558;52.388;13.390;2023-05-15T10:03:59;15.96;;;11.02;;
56680;SDS011;42558;52.388;13.390;2023-05-15T10:06:36;15.39;;;10.64;;
56680;SDS011;42558;52.388;13.390;2023-05-15T10:09:09;14.06;;;11.21;;
56680;SDS011;42558;52.388;13.390;2023-05-15T10:11:39;16.34;;;11.21;;
56680;SDS011;42558;52.388;13.390;2023-05-15T10:14:12;13.30;;;10.83;;
56680;SDS011;42558;52.388;13.390;2023-05-15T10:16:42;15.20;;;10.45;;
56680;SDS011;42558;52.388;13.390;2023-05-15T10:19:13;12.92;;;9.69;;
56680;SDS011;42558;52.388;13.390;2023-05-15T10:21:43;16.91;;;9.12;;
56680;SDS011;42558;52.388;13.390;2023-05-15T10:24:15;16.15;;;10.07;;
56680;SDS011;42558;52.388;13.390;2023-05-15T10:26:46;14.63;;;10.07;;
56680;SDS011;42558;52.388;13.390;2023-05-15T10:29:17;13.68;;;9.69;;
56680;SDS011;42558;52.388;13.390;2023-05-15T10:31:48;16.34;;;10.07;;
56680;SDS011;42558;52.388;13.390;2023-05-15T10:34:19;13.30;;;8.74;;
56680;SDS011;42558;52.388;13.390;2023-05-15T10:36:49;11.97;;;8.93;;
56680;SDS011;42558;52.388;13.390;2023-05-15T10:39:20;15.58;;;9.50;;
56680;SDS011;42558;52.388;13.390;2023-05-15T10:41:50;12.54;;;9.31;;
56680;SDS011;42558;52.388;13.390;2023-05-15T10:44:22;11.97;;;9.12;;
56680;SDS011;42558;52.388;13.390;2023-05-15T10:46:52;12.54;;;8.93;;
56680;SDS011;42558;52.388;13.390;2023-05-15T10:49:24;13.87;;;8.55;;
56680;SDS011;42558;52.388;13.390;2023-05-15T10:51:53;12.35;;;9.50;;
56680;SDS011;42558;52.388;13.390;2023-05-15T10:54:22;17.29;;;9.12;;
56680;SDS011;42558;52.388;13.390;2023-05-15T10:56:50;16.53;;;9.12;;
56680;SDS011;42558;52.388;13.390;2023-05-15T10:59:30;13.11;;;8.93;;
56680;SDS011;42558;52.388;13.390;2023-05-15T11:02:19;16.15;;;11.40;;
56680;SDS011;42558;52.388;13.390;2023-05-15T11:05:01;14.82;;;10.64;;
56680;SDS011;42558;52.388;13.390;2023-05-15T11:07:30;19.19;;;10.07;;
56680;SDS011;42558;52.388;13.390;2023-05-15T11:09:58;13.30;;;10.26;;
56680;SDS011;42558;52.388;13.390;2023-05-15T11:12:54;13.49;;;9.69;;
56680;SDS011;42558;52.388;13.390;2023-05-15T11:15:26;15.01;;;10.64;;
56680;SDS011;42558;52.388;13.390;2023-05-15T11:18:09;15.20;;;10.07;;
56680;SDS011;42558;52.388;13.390;2023-05-15T11:23:38;15.77;;;10.07;;
56680;SDS011;42558;52.388;13.390;2023-05-15T11:26:12;14.44;;;9.12;;
56680;SDS011;42558;52.388;13.390;2023-05-15T11:28:42;13.30;;;8.55;;
56680;SDS011;42558;52.388;13.390;2023-05-15T11:31:13;15.01;;;8.93;;
56680;SDS011;42558;52.388;13.390;2023-05-15T11:33:49;10.45;;;7.79;;
56680;SDS011;42558;52.388;13.390;2023-05-15T11:36:23;19.95;;;9.12;;
56680;SDS011;42558;52.388;13.390;2023-05-15T11:38:52;11.21;;;8.36;;
56680;SDS011;42558;52.388;13.390;2023-05-15T11:41:19;10.07;;;7.41;;
56680;SDS011;42558;52.388;13.390;2023-05-15T11:43:49;11.21;;;8.17;;
56680;SDS011;42558;52.388;13.390;2023-05-15T11:46:16;13.87;;;7.79;;
56680;SDS011;42558;52.388;13.390;2023-05-15T11:48:45;13.11;;;7.98;;
56680;SDS011;42558;52.388;13.390;2023-05-15T11:51:21;11.97;;;7.41;;
56680;SDS011;42558;52.388;13.390;2023-05-15T11:53:54;10.45;;;7.60;;
56680;SDS011;42558;52.388;13.390;2023-05-15T11:56:26;11.97;;;7.60;;
56680;SDS011;42558;52.388;13.390;2023-05-15T11:58:59;9.88;;;7.03;;
56680;SDS011;42558;52.388;13.390;2023-05-15T12:01:41;9.69;;;6.46;;
56680;SDS011;42558;52.388;13.390;2023-05-15T12:04:13;11.40;;;6.27;;
56680;SDS011;42558;52.388;13.390;2023-05-15T12:06:46;9.69;;;7.03;;
56680;SDS011;42558;52.388;13.390;2023-05-15T12:09:18;10.64;;;6.84;;
56680;SDS011;42558;52.388;13.390;2023-05-15T12:11:54;10.07;;;7.03;;
56680;SDS011;42558;52.388;13.390;2023-05-15T12:14:28;13.49;;;6.84;;
56680;SDS011;42558;52.388;13.390;2023-05-15T12:16:59;10.64;;;6.46;;
56680;SDS011;42558;52.388;13.390;2023-05-15T12:19:33;15.77;;;7.03;;
56680;SDS011;42558;52.388;13.390;2023-05-15T12:22:06;11.21;;;7.22;;
56680;SDS011;42558;52.388;13.390;2023-05-15T12:24:37;8.17;;;5.89;;
56680;SDS011;42558;52.388;13.390;2023-05-15T12:27:07;8.36;;;5.51;;
56680;SDS011;42558;52.388;13.390;2023-05-15T12:29:39;11.02;;;5.13;;
56680;SDS011;42558;52.388;13.390;2023-05-15T12:32:09;9.31;;;6.08;;
56680;SDS011;42558;52.388;13.390;2023-05-15T12:34:40;10.07;;;5.51;;
56680;SDS011;42558;52.388;13.390;2023-05-15T12:37:13;9.69;;;5.13;;
56680;SDS011;42558;52.388;13.390;2023-05-15T12:42:22;9.69;;;5.13;;
56680;SDS011;42558;52.388;13.390;2023-05-15T12:44:54;8.93;;;4.37;;
56680;SDS011;42558;52.388;13.390;2023-05-15T12:47:26;10.45;;;4.56;;
56680;SDS011;42558;52.388;13.390;2023-05-15T12:49:56;7.22;;;4.18;;
56680;SDS011;42558;52.388;13.390;2023-05-15T12:52:27;7.22;;;3.61;;
56680;SDS011;42558;52.388;13.390;2023-05-15T12:55:00;7.79;;;3.99;;
56680;SDS011;42558;52.388;13.390;2023-05-15T12:57:29;6.08;;;3.80;;
56680;SDS011;42558;52.388;13.390;2023-05-15T12:59:59;7.79;;;4.94;;
56680;SDS011;42558;52.388;13.390;2023-05-15T13:02:29;10.26;;;5.32;;
56680;SDS011;42558;52.388;13.390;2023-05-15T13:05:01;6.84;;;4.37;;
56680;SDS011;42558;52.388;13.390;2023-05-15T13:07:32;10.07;;;5.13;;
56680;SDS011;42558;52.388;13.390;2023-05-15T13:10:06;7.41;;;4.94;;
56680;SDS011;42558;52.388;13.390;2023-05-15T13:12:40;7.22;;;4.75;;
56680;SDS011;42558;52.388;13.390;2023-05-15T13:15:27;7.41;;;4.75;;
56680;SDS011;42558;52.388;13.390;2023-05-15T13:18:00;7.98;;;5.32;;
56680;SDS011;42558;52.388;13.390;2023-05-15T13:23:02;10.07;;;4.75;;
56680;SDS011;42558;52.388;13.390;2023-05-15T13:25:30;8.74;;;4.94;;
56680;SDS011;42558;52.388;13.390;2023-05-15T13:28:03;14.06;;;6.27;;
56680;SDS011;42558;52.388;13.390;2023-05-15T13:30:34;7.60;;;5.32;;
56680;SDS011;42558;52.388;13.390;2023-05-15T13:33:02;10.26;;;4.56;;
56680;SDS011;42558;52.388;13.390;2023-05-15T13:35:31;12.73;;;5.51;;
56680;SDS011;42558;52.388;13.390;2023-05-15T13:38:00;11.02;;;5.13;;
56680;SDS011;42558;52.388;13.390;2023-05-15T13:40:30;7.98;;;4.94;;
56680;SDS011;42558;52.388;13.390;2023-05-15T13:43:06;9.69;;;5.13;;
56680;SDS011;42558;52.388;13.390;2023-05-15T13:45:36;10.26;;;5.13;;
56680;SDS011;42558;52.388;13.390;2023-05-15T13:48:06;9.31;;;5.89;;
56680;SDS011;42558;52.388;13.390;2023-05-15T13:50:36;7.60;;;5.13;;
56680;SDS011;42558;52.388;13.390;2023-05-15T13:55:45;8.74;;;5.70;;
56680;SDS011;42558;52.388;13.390;2023-05-15T13:58:15;8.93;;;5.70;;
56680;SDS011;42558;52.388;13.390;2023-05-15T14:00:47;19.38;;;6.08;;
56680;SDS011;42558;52.388;13.390;2023-05-15T14:03:17;13.87;;;4.37;;
56680;SDS011;42558;52.388;13.390;2023-05-15T14:05:47;15.58;;;3.99;;
56680;SDS011;42558;52.388;13.390;2023-05-15T14:08:17;13.68;;;3.80;;
56680;SDS011;42558;52.388;13.390;2023-05-15T14:10:47;11.78;;;3.42;;
56680;SDS011;42558;52.388;13.390;2023-05-15T14:13:17;9.31;;;3.61;;
56680;SDS011;42558;52.388;13.390;2023-05-15T14:15:47;7.98;;;3.42;;
56680;SDS011;42558;52.388;13.390;2023-05-15T14:18:17;7.79;;;3.99;;
56680;SDS011;42558;52.388;13.390;2023-05-15T14:20:46;7.60;;;3.99;;
56680;SDS011;42558;52.388;13.390;2023-05-15T14:23:17;7.79;;;3.99;;
56680;SDS011;42558;52.388;13.390;2023-05-15T14:25:47;7.79;;;4.18;;
56680;SDS011;42558;52.388;13.390;2023-05-15T14:28:17;7.60;;;4.94;;
56680;SDS011;42558;52.388;13.390;2023-05-15T14:30:47;7.98;;;3.99;;
56680;SDS011;42558;52.388;13.390;2023-05-15T14:33:17;7.98;;;5.32;;
56680;SDS011;42558;52.388;13.390;2023-05-15T14:35:47;10.45;;;5.13;;
56680;SDS011;42558;52.388;13.390;2023-05-15T14:38:17;9.12;;;5.13;;
56680;SDS011;42558;52.388;13.390;2023-05-15T14:40:47;9.12;;;5.13;;
56680;SDS011;42558;52.388;13.390;2023-05-15T14:43:17;7.98;;;4.94;;
56680;SDS011;42558;52.388;13.390;2023-05-15T14:45:47;9.88;;;5.13;;
56680;SDS011;42558;52.388;13.390;2023-05-15T14:48:18;8.93;;;4.94;;
56680;SDS011;42558;52.388;13.390;2023-05-15T14:50:48;7.98;;;4.75;;
56680;SDS011;42558;52.388;13.390;2023-05-15T14:53:19;7.60;;;4.94;;
56680;SDS011;42558;52.388;13.390;2023-05-15T14:55:49;7.41;;;4.56;;
56680;SDS011;42558;52.388;13.390;2023-05-15T14:58:19;9.31;;;5.13;;
56680;SDS011;42558;52.388;13.390;2023-05-15T15:00:47;8.55;;;4.75;;
56680;SDS011;42558;52.388;13.390;2023-05-15T15:03:16;7.79;;;4.94;;
56680;SDS011;42558;52.388;13.390;2023-05-15T15:05:45;8.36;;;4.56;;